createdAt,value
2024-05-09T00:00:36.478Z,11.30
2024-05-09T00:03:07.000Z,11.27
2024-05-09T00:05:37.089Z,11.25
2024-05-09T00:08:06.065Z,11.26
2024-05-09T00:10:37.241Z,11.18
2024-05-09T00:13:06.176Z,10.97
2024-05-09T00:15:33.484Z,10.92
2024-05-09T00:18:00.958Z,10.91
2024-05-09T00:20:33.538Z,10.84
2024-05-09T00:23:08.428Z,10.87
2024-05-09T00:25:35.897Z,10.77
2024-05-09T00:28:02.843Z,10.59
2024-05-09T00:30:34.579Z,10.84
2024-05-09T00:33:04.747Z,10.63
2024-05-09T00:35:32.525Z,10.57
2024-05-09T00:37:59.737Z,10.47
2024-05-09T00:40:38.974Z,10.60
2024-05-09T00:43:08.738Z,10.67
2024-05-09T00:45:35.727Z,10.71
2024-05-09T00:48:04.528Z,10.72
2024-05-09T00:50:36.430Z,10.72
2024-05-09T00:53:06.016Z,10.82
2024-05-09T00:55:37.105Z,10.68
2024-05-09T00:58:07.488Z,10.58
2024-05-09T01:00:39.249Z,10.41
2024-05-09T01:03:08.470Z,10.42
2024-05-09T01:05:37.821Z,10.44
2024-05-09T01:08:05.980Z,10.39
2024-05-09T01:10:36.396Z,10.39
2024-05-09T01:13:03.797Z,10.37
2024-05-09T01:15:30.854Z,10.42
2024-05-09T01:17:58.763Z,10.43
2024-05-09T01:20:36.844Z,10.43
2024-05-09T01:23:12.251Z,10.52
2024-05-09T01:25:39.775Z,10.24
2024-05-09T01:28:06.897Z,10.23
2024-05-09T01:30:36.260Z,10.18
2024-05-09T01:33:06.136Z,10.08
2024-05-09T01:35:34.561Z,10.17
2024-05-09T01:38:01.510Z,10.14
2024-05-09T01:40:37.813Z,10.32
2024-05-09T01:43:07.041Z,10.27
2024-05-09T01:45:34.075Z,10.26
2024-05-09T01:48:01.639Z,10.31
2024-05-09T01:50:37.503Z,10.33
2024-05-09T01:53:07.841Z,10.40
2024-05-09T01:55:37.500Z,10.41
2024-05-09T01:58:04.824Z,10.46
2024-05-09T02:00:38.796Z,10.47
2024-05-09T02:03:09.299Z,10.39
2024-05-09T02:05:36.734Z,10.34
2024-05-09T02:08:04.208Z,10.20
2024-05-09T02:10:32.985Z,10.15
2024-05-09T02:13:03.034Z,9.95
2024-05-09T02:15:29.799Z,10.08
2024-05-09T02:17:56.829Z,10.19
2024-05-09T02:20:33.048Z,10.27
2024-05-09T02:23:03.144Z,10.30
2024-05-09T02:25:30.090Z,10.31
2024-05-09T02:27:56.871Z,10.34
2024-05-09T02:30:36.108Z,10.29
2024-05-09T02:33:07.811Z,10.24
2024-05-09T02:35:35.178Z,10.19
2024-05-09T02:38:02.232Z,10.23
2024-05-09T02:40:36.410Z,10.27
2024-05-09T02:43:05.943Z,10.37
2024-05-09T02:45:35.472Z,10.40
2024-05-09T02:48:02.756Z,10.35
2024-05-09T02:50:36.967Z,10.25
2024-05-09T02:53:06.469Z,10.27
2024-05-09T02:55:33.944Z,10.21
2024-05-09T02:58:00.801Z,10.01
2024-05-09T03:00:36.630Z,10.04
2024-05-09T03:03:12.394Z,10.03
2024-05-09T03:05:41.704Z,10.13
2024-05-09T03:08:08.943Z,10.01
2024-05-09T03:10:38.341Z,10.03
2024-05-09T03:13:06.828Z,10.08
2024-05-09T03:15:33.697Z,10.17
2024-05-09T03:18:00.737Z,10.07
2024-05-09T03:20:34.519Z,10.14
2024-05-09T03:23:03.280Z,10.07
2024-05-09T03:25:30.291Z,10.09
2024-05-09T03:27:57.120Z,10.09
2024-05-09T03:30:31.131Z,9.91
2024-05-09T03:33:10.083Z,9.90
2024-05-09T03:35:39.856Z,9.87
2024-05-09T03:38:06.738Z,9.84
2024-05-09T03:40:33.669Z,9.75
2024-05-09T03:43:00.394Z,9.64
2024-05-09T03:45:27.164Z,9.55
2024-05-09T03:47:54.200Z,9.61
2024-05-09T03:50:26.462Z,9.57
2024-05-09T03:53:03.000Z,9.75
2024-05-09T03:55:30.007Z,9.89
2024-05-09T03:57:57.015Z,9.82
2024-05-09T04:00:31.294Z,9.73
2024-05-09T04:03:05.934Z,9.77
2024-05-09T04:05:34.486Z,9.80
2024-05-09T04:08:04.814Z,9.90
2024-05-09T04:10:34.186Z,9.88
2024-05-09T04:13:02.309Z,9.98
2024-05-09T04:15:29.446Z,9.93
2024-05-09T04:17:56.646Z,9.91
2024-05-09T04:20:33.399Z,9.98
2024-05-09T04:23:11.595Z,9.97
2024-05-09T04:25:40.707Z,9.87
2024-05-09T04:28:07.566Z,9.86
2024-05-09T04:30:38.811Z,9.85
2024-05-09T04:33:10.769Z,9.84
2024-05-09T04:35:39.486Z,9.99
2024-05-09T04:38:09.414Z,10.05
2024-05-09T04:40:37.490Z,10.02
2024-05-09T04:43:05.943Z,10.11
2024-05-09T04:45:33.175Z,10.11
2024-05-09T04:48:00.806Z,10.17
2024-05-09T04:50:35.830Z,10.30
2024-05-09T04:53:10.075Z,10.39
2024-05-09T04:55:37.977Z,10.41
2024-05-09T04:58:06.830Z,10.31
2024-05-09T05:00:37.406Z,10.42
2024-05-09T05:03:08.313Z,10.48
2024-05-09T05:05:38.046Z,10.51
2024-05-09T05:08:10.674Z,10.50
2024-05-09T05:10:37.582Z,10.55
2024-05-09T05:13:04.836Z,10.56
2024-05-09T05:15:31.649Z,10.57
2024-05-09T05:17:58.696Z,10.70
2024-05-09T05:20:32.699Z,10.65
2024-05-09T05:23:00.930Z,10.78
2024-05-09T05:25:30.561Z,10.78
2024-05-09T05:27:57.323Z,10.85
2024-05-09T05:30:29.097Z,10.85
2024-05-09T05:33:01.374Z,10.84
2024-05-09T05:35:28.533Z,10.90
2024-05-09T05:37:55.565Z,11.03
2024-05-09T05:40:28.714Z,11.12
2024-05-09T05:43:05.853Z,11.20
2024-05-09T05:45:32.827Z,11.35
2024-05-09T05:47:59.961Z,11.39
2024-05-09T05:50:32.834Z,11.44
2024-05-09T05:53:03.479Z,11.51
2024-05-09T05:55:30.441Z,11.54
2024-05-09T05:57:57.230Z,11.57
2024-05-09T06:00:34.387Z,11.64
2024-05-09T06:03:05.536Z,11.75
2024-05-09T06:05:32.930Z,11.86
2024-05-09T06:08:00.099Z,11.93
2024-05-09T06:10:36.981Z,11.98
2024-05-09T06:13:06.708Z,12.08
2024-05-09T06:15:36.193Z,12.18
2024-05-09T06:18:05.763Z,12.29
2024-05-09T06:20:36.480Z,12.33
2024-05-09T06:23:05.514Z,12.36
2024-05-09T06:25:32.628Z,12.46
2024-05-09T06:27:59.950Z,12.49
2024-05-09T06:30:36.537Z,12.48
2024-05-09T06:33:11.186Z,12.58
2024-05-09T06:35:40.093Z,12.57
2024-05-09T06:38:07.445Z,12.57
2024-05-09T06:40:39.169Z,12.61
2024-05-09T06:43:11.045Z,12.67
2024-05-09T06:45:39.051Z,12.72
2024-05-09T06:48:09.831Z,12.75
2024-05-09T06:50:38.833Z,12.82
2024-05-09T06:53:06.952Z,12.83
2024-05-09T06:55:33.938Z,12.98
2024-05-09T06:58:00.890Z,13.06
2024-05-09T07:00:35.641Z,13.10
2024-05-09T07:03:12.752Z,13.14
2024-05-09T07:05:44.022Z,13.20
2024-05-09T07:08:11.337Z,13.29
2024-05-09T07:10:38.556Z,13.33
2024-05-09T07:13:08.376Z,13.42
2024-05-09T07:15:35.235Z,13.50
2024-05-09T07:18:11.074Z,13.57
2024-05-09T07:20:38.993Z,13.60
2024-05-09T07:23:08.898Z,13.74
2024-05-09T07:25:36.011Z,13.75
2024-05-09T07:28:02.903Z,13.74
2024-05-09T07:30:33.593Z,13.77
2024-05-09T07:33:02.537Z,13.83
2024-05-09T07:35:32.812Z,13.76
2024-05-09T07:38:00.038Z,13.91
2024-05-09T07:40:34.808Z,13.92
2024-05-09T07:43:04.440Z,14.01
2024-05-09T07:45:48.028Z,14.06
2024-05-09T07:52:37.274Z,14.05
2024-05-09T07:53:45.196Z,14.15
2024-05-09T07:56:15.727Z,14.15
2024-05-09T07:58:43.825Z,14.24
2024-05-09T08:01:10.807Z,14.31
2024-05-09T08:03:38.366Z,14.35
2024-05-09T08:06:08.140Z,14.35
2024-05-09T08:08:35.114Z,14.39
2024-05-09T08:11:02.839Z,14.43
2024-05-09T08:13:29.778Z,14.49
2024-05-09T08:15:56.868Z,14.42
2024-05-09T08:18:23.994Z,14.45
2024-05-09T08:20:51.050Z,14.64
2024-05-09T08:23:20.634Z,14.64
2024-05-09T08:25:47.440Z,14.81
2024-05-09T08:28:14.547Z,14.87
2024-05-09T08:30:42.178Z,14.89
2024-05-09T08:33:09.234Z,14.87
2024-05-09T08:35:36.092Z,14.92
2024-05-09T08:38:04.515Z,14.92
2024-05-09T08:40:36.733Z,15.00
2024-05-09T08:43:07.880Z,15.16
2024-05-09T08:45:35.747Z,15.11
2024-05-09T08:48:03.095Z,15.15
2024-05-09T08:50:37.573Z,15.25
2024-05-09T08:53:06.239Z,15.19
2024-05-09T08:55:37.285Z,15.32
2024-05-09T08:58:07.172Z,15.42
2024-05-09T09:00:37.219Z,15.51
2024-05-09T09:03:09.014Z,15.61
2024-05-09T09:05:38.356Z,15.56
2024-05-09T09:08:08.882Z,15.63
2024-05-09T09:10:39.703Z,15.71
2024-05-09T09:13:06.802Z,15.78
2024-05-09T09:15:33.714Z,15.84
2024-05-09T09:18:01.077Z,15.88
2024-05-09T09:20:35.775Z,15.92
2024-05-09T09:23:04.734Z,16.13
2024-05-09T09:25:32.369Z,16.05
2024-05-09T09:28:02.038Z,16.14
2024-05-09T09:30:36.317Z,16.13
2024-05-09T09:33:05.506Z,16.11
2024-05-09T09:35:32.788Z,16.14
2024-05-09T09:38:03.106Z,16.38
2024-05-09T09:40:36.210Z,16.35
2024-05-09T09:43:14.187Z,16.55
2024-05-09T09:45:43.239Z,16.67
2024-05-09T09:48:10.928Z,16.78
2024-05-09T09:50:38.869Z,16.89
2024-05-09T09:53:07.380Z,17.12
2024-05-09T09:55:35.626Z,17.11
2024-05-09T09:58:04.158Z,17.15
2024-05-09T10:00:34.395Z,17.39
2024-05-09T10:03:02.519Z,17.45
2024-05-09T10:05:30.273Z,17.73
2024-05-09T10:07:58.502Z,17.94
2024-05-09T10:10:32.260Z,18.26
2024-05-09T10:13:00.893Z,18.43
2024-05-09T10:15:28.108Z,18.21
2024-05-09T10:18:04.817Z,17.55
2024-05-09T10:20:40.207Z,17.45
2024-05-09T10:23:22.205Z,17.81
2024-05-09T10:25:55.583Z,18.16
2024-05-09T10:28:25.705Z,18.07
2024-05-09T10:31:02.069Z,17.94
2024-05-09T10:33:39.139Z,17.35
2024-05-09T10:36:11.627Z,17.09
2024-05-09T10:38:40.143Z,17.06
2024-05-09T10:41:08.840Z,17.10
2024-05-09T10:43:39.133Z,17.19
2024-05-09T10:46:06.568Z,17.30
2024-05-09T10:48:33.718Z,17.51
2024-05-09T10:51:04.153Z,17.40
2024-05-09T10:53:31.052Z,17.27
2024-05-09T10:55:58.020Z,17.16
2024-05-09T10:58:25.437Z,17.34
2024-05-09T11:00:54.293Z,17.50
2024-05-09T11:03:23.168Z,18.35
2024-05-09T11:05:50.776Z,19.23
2024-05-09T11:08:21.695Z,20.01
2024-05-09T11:10:50.841Z,20.48
2024-05-09T11:13:26.808Z,21.19
2024-05-09T11:15:53.666Z,21.45
2024-05-09T11:18:24.648Z,21.58
2024-05-09T11:20:53.168Z,21.36
2024-05-09T11:23:23.941Z,20.86
2024-05-09T11:25:51.123Z,20.23
2024-05-09T11:28:18.098Z,20.00
2024-05-09T11:30:45.150Z,19.70
2024-05-09T11:33:12.087Z,19.29
2024-05-09T11:35:39.105Z,18.79
2024-05-09T11:38:05.999Z,18.85
2024-05-09T11:40:35.564Z,18.83
2024-05-09T11:43:02.507Z,18.82
2024-05-09T11:45:29.436Z,18.73
2024-05-09T11:47:56.454Z,18.79
2024-05-09T11:50:29.809Z,18.91
2024-05-09T11:52:59.834Z,19.02
2024-05-09T11:55:28.249Z,19.29
2024-05-09T11:57:58.290Z,19.66
2024-05-09T12:00:33.748Z,20.27
2024-05-09T12:03:04.378Z,20.87
2024-05-09T12:05:31.532Z,20.64
2024-05-09T12:07:58.588Z,20.36
2024-05-09T12:10:32.698Z,20.10
2024-05-09T12:13:06.693Z,19.97
2024-05-09T12:15:35.592Z,19.72
2024-05-09T12:18:04.140Z,20.22
2024-05-09T12:20:36.969Z,20.97
2024-05-09T12:23:06.813Z,21.25
2024-05-09T12:25:33.862Z,21.66
2024-05-09T12:28:01.218Z,21.80
2024-05-09T12:30:36.722Z,21.26
2024-05-09T12:33:07.609Z,20.20
2024-05-09T12:35:34.765Z,19.20
2024-05-09T12:38:01.920Z,19.66
2024-05-09T12:40:35.674Z,20.70
2024-05-09T12:43:06.143Z,21.87
2024-05-09T12:45:37.250Z,22.45
2024-05-09T12:48:05.472Z,22.79
2024-05-09T12:50:34.233Z,22.80
2024-05-09T12:53:05.195Z,23.03
2024-05-09T12:55:40.571Z,23.24
2024-05-09T12:58:15.608Z,23.12
2024-05-09T13:00:45.549Z,23.23
2024-05-09T13:03:13.053Z,22.61
2024-05-09T13:05:40.440Z,22.17
2024-05-09T13:08:07.609Z,22.29
2024-05-09T13:10:34.551Z,22.65
2024-05-09T13:13:02.195Z,22.99
2024-05-09T13:15:29.507Z,23.52
2024-05-09T13:18:01.944Z,23.78
2024-05-09T13:20:33.603Z,24.09
2024-05-09T13:23:02.973Z,23.92
2024-05-09T13:25:29.818Z,23.48
2024-05-09T13:27:57.295Z,22.86
2024-05-09T13:30:34.690Z,23.58
2024-05-09T13:33:09.392Z,24.05
2024-05-09T13:35:36.695Z,24.48
2024-05-09T13:38:04.852Z,23.65
2024-05-09T13:40:35.256Z,22.46
2024-05-09T13:43:03.666Z,21.60
2024-05-09T13:45:30.771Z,20.61
2024-05-09T13:47:58.480Z,20.51
2024-05-09T13:50:34.279Z,20.57
2024-05-09T13:53:03.450Z,20.33
2024-05-09T13:55:30.648Z,20.05
2024-05-09T13:57:57.625Z,19.98
2024-05-09T14:00:38.171Z,19.88
2024-05-09T14:03:12.115Z,19.87
2024-05-09T14:05:41.851Z,20.17
2024-05-09T14:08:09.083Z,20.75
2024-05-09T14:10:36.298Z,21.69
2024-05-09T14:13:03.387Z,22.06
2024-05-09T14:15:30.402Z,22.67
2024-05-09T14:17:57.403Z,22.76
2024-05-09T14:20:30.881Z,23.23
2024-05-09T14:23:01.849Z,23.36
2024-05-09T14:25:30.508Z,23.39
2024-05-09T14:27:57.972Z,22.86
2024-05-09T14:30:33.640Z,21.96
2024-05-09T14:33:04.335Z,21.00
2024-05-09T14:35:31.416Z,20.67
2024-05-09T14:38:01.143Z,20.32
2024-05-09T14:40:38.793Z,19.90
2024-05-09T14:43:11.034Z,19.87
2024-05-09T14:45:37.999Z,19.78
2024-05-09T14:48:05.558Z,19.35
2024-05-09T14:50:37.129Z,19.17
2024-05-09T14:53:10.744Z,18.87
2024-05-09T14:55:39.096Z,18.76
2024-05-09T14:58:17.657Z,18.86
2024-05-09T15:00:50.866Z,18.82
2024-05-09T15:03:21.114Z,18.77
2024-05-09T15:05:49.147Z,18.73
2024-05-09T15:08:19.391Z,18.56
2024-05-09T15:10:46.744Z,18.39
2024-05-09T15:13:16.477Z,18.54
2024-05-09T15:15:44.059Z,18.80
2024-05-09T15:18:11.254Z,18.68
2024-05-09T15:20:38.461Z,18.72
2024-05-09T15:23:06.993Z,18.63
2024-05-09T15:25:37.218Z,18.71
2024-05-09T15:28:04.821Z,18.58
2024-05-09T15:30:33.685Z,18.70
2024-05-09T15:33:01.901Z,18.57
2024-05-09T15:35:29.081Z,18.63
2024-05-09T15:37:56.241Z,18.65
2024-05-09T15:40:31.732Z,18.59
2024-05-09T15:43:10.120Z,18.70
2024-05-09T15:45:38.931Z,18.81
2024-05-09T15:48:08.106Z,18.84
2024-05-09T15:50:39.331Z,18.69
2024-05-09T15:53:09.924Z,18.78
2024-05-09T15:55:37.489Z,18.90
2024-05-09T15:58:07.838Z,18.73
2024-05-09T16:00:39.191Z,18.60
2024-05-09T16:03:10.019Z,18.77
2024-05-09T16:05:37.542Z,19.06
2024-05-09T16:08:05.833Z,19.25
2024-05-09T16:10:34.340Z,19.23
2024-05-09T16:13:03.338Z,19.24
2024-05-09T16:15:33.676Z,19.16
2024-05-09T16:18:00.915Z,19.24
2024-05-09T16:20:37.312Z,19.38
2024-05-09T16:23:08.522Z,19.43
2024-05-09T16:25:35.708Z,19.67
2024-05-09T16:28:05.754Z,19.75
2024-05-09T16:30:38.331Z,19.28
2024-05-09T16:33:06.308Z,19.31
2024-05-09T16:35:33.239Z,19.07
2024-05-09T16:38:01.677Z,18.94
2024-05-09T16:40:36.340Z,18.88
2024-05-09T16:43:07.191Z,18.70
2024-05-09T16:45:34.535Z,18.32
2024-05-09T16:48:04.965Z,18.44
2024-05-09T16:50:34.306Z,18.48
2024-05-09T16:53:02.913Z,18.26
2024-05-09T16:55:30.168Z,18.19
2024-05-09T16:57:58.001Z,18.12
2024-05-09T17:00:35.883Z,18.15
2024-05-09T17:03:13.285Z,18.13
2024-05-09T17:05:41.923Z,18.23
2024-05-09T17:08:09.344Z,18.28
2024-05-09T17:10:36.685Z,18.26
2024-05-09T17:13:06.186Z,18.24
2024-05-09T17:15:34.570Z,18.26
2024-05-09T17:18:01.889Z,18.34
2024-05-09T17:20:35.192Z,18.26
2024-05-09T17:23:05.953Z,18.22
2024-05-09T17:25:33.567Z,18.11
2024-05-09T17:28:00.850Z,18.01
2024-05-09T17:30:32.631Z,17.95
2024-05-09T17:33:03.495Z,17.81
2024-05-09T17:35:33.248Z,17.65
2024-05-09T17:38:00.261Z,17.74
2024-05-09T17:40:32.743Z,17.70
2024-05-09T17:43:02.998Z,17.46
2024-05-09T17:45:30.343Z,17.35
2024-05-09T17:47:58.057Z,17.34
2024-05-09T17:50:31.479Z,17.28
2024-05-09T17:53:05.819Z,17.38
2024-05-09T17:55:32.949Z,17.24
2024-05-09T17:57:59.999Z,17.30
2024-05-09T18:02:57.293Z,17.27
2024-05-09T18:05:24.429Z,17.19
2024-05-09T18:07:51.407Z,17.18
2024-05-09T18:10:26.052Z,17.22
2024-05-09T18:12:59.848Z,17.14
2024-05-09T18:15:26.686Z,17.03
2024-05-09T18:17:54.096Z,16.95
2024-05-09T18:20:32.091Z,17.16
2024-05-09T18:23:06.958Z,17.16
2024-05-09T18:25:36.502Z,17.12
2024-05-09T18:28:03.820Z,17.11
2024-05-09T18:30:34.550Z,17.17
2024-05-09T18:33:04.119Z,16.90
2024-05-09T18:35:31.430Z,17.02
2024-05-09T18:37:58.319Z,16.97
2024-05-09T18:40:32.545Z,16.79
2024-05-09T18:43:07.906Z,16.77
2024-05-09T18:45:36.676Z,16.75
2024-05-09T18:48:04.840Z,16.67
2024-05-09T18:50:36.294Z,16.64
2024-05-09T18:53:06.540Z,16.61
2024-05-09T18:55:33.713Z,16.52
2024-05-09T18:58:00.872Z,16.55
2024-05-09T19:00:35.345Z,16.47
2024-05-09T19:03:06.881Z,16.36
2024-05-09T19:05:36.411Z,16.32
2024-05-09T19:08:03.969Z,16.26
2024-05-09T19:10:34.499Z,16.27
2024-05-09T19:13:06.683Z,16.17
2024-05-09T19:15:40.663Z,16.14
2024-05-09T19:18:08.493Z,16.07
2024-05-09T19:20:36.642Z,15.93
2024-05-09T19:23:05.154Z,15.93
2024-05-09T19:25:32.650Z,15.74
2024-05-09T19:27:59.626Z,15.77
2024-05-09T19:30:36.404Z,15.76
2024-05-09T19:33:12.019Z,15.70
2024-05-09T19:35:40.019Z,15.64
2024-05-09T19:38:07.087Z,15.60
2024-05-09T19:40:35.164Z,15.53
2024-05-09T19:43:04.482Z,15.49
2024-05-09T19:45:32.521Z,15.52
2024-05-09T19:48:00.105Z,15.48
2024-05-09T19:50:41.837Z,15.43
2024-05-09T19:53:11.670Z,15.27
2024-05-09T19:55:39.323Z,15.28
2024-05-09T19:58:07.705Z,15.33
2024-05-09T20:00:37.895Z,15.31
2024-05-09T20:03:07.389Z,15.29
2024-05-09T20:05:37.890Z,15.24
2024-05-09T20:08:06.235Z,15.19
2024-05-09T20:10:35.422Z,15.17
2024-05-09T20:13:04.474Z,15.16
2024-05-09T20:15:34.105Z,15.14
2024-05-09T20:18:01.493Z,15.16
2024-05-09T20:20:36.357Z,15.07
2024-05-09T20:23:10.335Z,15.06
2024-05-09T20:25:38.182Z,15.06
2024-05-09T20:28:06.250Z,14.97
2024-05-09T20:30:34.557Z,15.05
2024-05-09T20:33:04.420Z,15.03
2024-05-09T20:35:33.023Z,14.96
2024-05-09T20:38:00.636Z,15.08
2024-05-09T20:40:34.628Z,14.98
2024-05-09T20:43:05.696Z,14.90
2024-05-09T20:45:33.431Z,14.92
2024-05-09T20:48:00.659Z,14.88
2024-05-09T20:50:36.151Z,14.81
2024-05-09T20:53:08.930Z,14.76
2024-05-09T20:55:38.563Z,14.72
2024-05-09T20:58:05.714Z,14.73
2024-05-09T21:00:39.209Z,14.73
2024-05-09T21:03:10.905Z,14.73
2024-05-09T21:05:38.659Z,14.79
2024-05-09T21:08:06.539Z,14.73
2024-05-09T21:10:34.720Z,14.53
2024-05-09T21:13:05.852Z,14.26
2024-05-09T21:15:33.638Z,14.23
2024-05-09T21:18:00.578Z,14.11
2024-05-09T21:20:31.499Z,14.13
2024-05-09T21:23:00.651Z,14.21
2024-05-09T21:25:27.732Z,14.14
2024-05-09T21:27:54.730Z,14.04
2024-05-09T21:30:32.884Z,13.79
2024-05-09T21:33:07.990Z,13.84
2024-05-09T21:35:35.029Z,13.99
2024-05-09T21:38:01.868Z,14.03
2024-05-09T21:40:34.287Z,14.04
2024-05-09T21:43:04.022Z,14.07
2024-05-09T21:45:34.187Z,14.11
2024-05-09T21:48:03.366Z,14.13
2024-05-09T21:50:37.025Z,14.10
2024-05-09T21:53:07.709Z,14.05
2024-05-09T21:55:36.961Z,14.04
2024-05-09T21:58:04.235Z,14.11
2024-05-09T22:00:37.542Z,14.18
2024-05-09T22:03:06.734Z,14.19
2024-05-09T22:05:34.454Z,14.15
2024-05-09T22:08:01.605Z,14.13
2024-05-09T22:10:33.903Z,14.18
2024-05-09T22:13:02.943Z,14.17
2024-05-09T22:15:29.958Z,14.13
2024-05-09T22:17:59.586Z,14.10
2024-05-09T22:20:34.323Z,14.11
2024-05-09T22:23:05.405Z,14.13
2024-05-09T22:25:33.094Z,14.10
2024-05-09T22:28:00.896Z,14.02
2024-05-09T22:30:35.617Z,13.97
2024-05-09T22:33:10.416Z,14.08
2024-05-09T22:35:38.885Z,14.11
2024-05-09T22:38:06.008Z,14.10
2024-05-09T22:40:42.588Z,13.95
2024-05-09T22:43:21.487Z,13.90
2024-05-09T22:45:50.530Z,13.80
2024-05-09T22:48:20.694Z,13.83
2024-05-09T22:50:47.594Z,13.87
2024-05-09T22:53:14.685Z,13.85
2024-05-09T22:55:41.706Z,13.79
2024-05-09T22:58:08.667Z,13.83
2024-05-09T23:00:35.727Z,13.85
2024-05-09T23:03:03.313Z,13.79
2024-05-09T23:05:34.826Z,13.79
2024-05-09T23:08:02.110Z,13.77
2024-05-09T23:10:35.440Z,13.77
2024-05-09T23:13:05.350Z,13.65
2024-05-09T23:15:32.227Z,13.63
2024-05-09T23:17:59.428Z,13.70
2024-05-09T23:20:33.834Z,13.72
2024-05-09T23:23:07.974Z,13.75
2024-05-09T23:25:34.986Z,13.72
2024-05-09T23:28:01.983Z,13.73
2024-05-09T23:30:36.543Z,13.71
2024-05-09T23:33:07.075Z,13.63
2024-05-09T23:35:34.051Z,13.56
2024-05-09T23:38:00.955Z,13.60
2024-05-09T23:40:37.947Z,13.45
2024-05-09T23:43:07.658Z,13.43
2024-05-09T23:45:35.010Z,13.32
2024-05-09T23:48:02.295Z,13.38
2024-05-09T23:50:35.001Z,13.39
2024-05-09T23:53:05.747Z,13.39
2024-05-09T23:55:35.549Z,13.30
2024-05-09T23:58:02.569Z,13.19
